sensor_id;sensor_type;location;lat;lon;timestamp;pressure;altitude;pressure_sealevel;temperature;humidity
75013;BME280;63567;49.956;20.130;2022-12-10T00:00:50;95660.44;;;0.59;83.65
75013;BME280;63567;49.956;20.130;2022-12-10T00:03:15;95659.47;;;0.60;83.66
75013;BME280;63567;49.956;20.130;2022-12-10T00:05:40;95673.06;;;0.63;82.78
75013;BME280;63567;49.956;20.130;2022-12-10T00:08:06;95667.88;;;0.63;82.84
75013;BME280;63567;49.956;20.130;2022-12-10T00:10:31;95667.09;;;0.62;84.10
75013;BME280;63567;49.956;20.130;2022-12-10T00:12:56;95668.72;;;0.63;83.07
75013;BME280;63567;49.956;20.130;2022-12-10T00:15:21;95664.34;;;0.64;83.52
75013;BME280;63567;49.956;20.130;2022-12-10T00:17:47;95665.31;;;0.63;83.87
75013;BME280;63567;49.956;20.130;2022-12-10T00:20:12;95667.09;;;0.62;83.71
75013;BME280;63567;49.956;20.130;2022-12-10T00:22:37;95667.88;;;0.63;83.13
75013;BME280;63567;49.956;20.130;2022-12-10T00:25:03;95672.78;;;0.66;83.28
75013;BME280;63567;49.956;20.130;2022-12-10T00:27:30;95677.78;;;0.59;83.71
75013;BME280;63567;49.956;20.130;2022-12-10T00:29:55;95678.25;;;0.63;83.52
75013;BME280;63567;49.956;20.130;2022-12-10T00:32:21;95691.56;;;0.68;82.54
75013;BME280;63567;49.956;20.130;2022-12-10T00:34:46;95689.94;;;0.67;83.53
75013;BME280;63567;49.956;20.130;2022-12-10T00:37:11;95687.81;;;0.62;83.78
75013;BME280;63567;49.956;20.130;2022-12-10T00:39:37;95692.53;;;0.67;83.34
75013;BME280;63567;49.956;20.130;2022-12-10T00:42:02;95685.06;;;0.64;83.06
75013;BME280;63567;49.956;20.130;2022-12-10T00:44:27;95684.09;;;0.65;83.05
75013;BME280;63567;49.956;20.130;2022-12-10T00:46:53;95683.28;;;0.64;83.31
75013;BME280;63567;49.956;20.130;2022-12-10T00:49:18;95686.69;;;0.65;84.21
75013;BME280;63567;49.956;20.130;2022-12-10T00:51:43;95691.88;;;0.65;83.46
75013;BME280;63567;49.956;20.130;2022-12-10T00:54:08;95692.84;;;0.64;83.47
75013;BME280;63567;49.956;20.130;2022-12-10T00:56:34;95693.81;;;0.63;83.63
75013;BME280;63567;49.956;20.130;2022-12-10T00:59:00;95699.16;;;0.61;83.89
75013;BME280;63567;49.956;20.130;2022-12-10T01:01:32;95693.97;;;0.61;83.75
75013;BME280;63567;49.956;20.130;2022-12-10T01:04:01;95701.28;;;0.66;83.99
75013;BME280;63567;49.956;20.130;2022-12-10T01:06:32;95702.56;;;0.61;83.27
75013;BME280;63567;49.956;20.130;2022-12-10T01:09:00;95698.97;;;0.63;83.98
75013;BME280;63567;49.956;20.130;2022-12-10T01:11:30;95707.91;;;0.68;84.00
75013;BME280;63567;49.956;20.130;2022-12-10T01:13:56;95700.13;;;0.68;83.21
75013;BME280;63567;49.956;20.130;2022-12-10T01:16:22;95692.84;;;0.64;84.04
75013;BME280;63567;49.956;20.130;2022-12-10T01:18:48;95689.94;;;0.67;83.41
75013;BME280;63567;49.956;20.130;2022-12-10T01:21:17;95697.41;;;0.70;83.11
75013;BME280;63567;49.956;20.130;2022-12-10T01:23:45;95707.13;;;0.68;83.46
75013;BME280;63567;49.956;20.130;2022-12-10T01:26:16;95713.44;;;0.65;83.36
75013;BME280;63567;49.956;20.130;2022-12-10T01:28:42;95708.53;;;0.62;82.85
75013;BME280;63567;49.956;20.130;2022-12-10T01:31:10;95703.22;;;0.64;82.96
75013;BME280;63567;49.956;20.130;2022-12-10T01:33:36;95699.34;;;0.68;83.46
75013;BME280;63567;49.956;20.130;2022-12-10T01:36:07;95705.00;;;0.63;84.04
75013;BME280;63567;49.956;20.130;2022-12-10T01:38:33;95705.78;;;0.55;82.90
75013;BME280;63567;49.956;20.130;2022-12-10T01:41:00;95704.50;;;0.59;83.69
75013;BME280;63567;49.956;20.130;2022-12-10T01:43:26;95718.41;;;0.50;84.10
75013;BME280;63567;49.956;20.130;2022-12-10T01:45:51;95708.53;;;0.54;83.52
75013;BME280;63567;49.956;20.130;2022-12-10T01:48:17;95715.50;;;0.53;83.93
75013;BME280;63567;49.956;20.130;2022-12-10T01:50:43;95715.00;;;0.50;84.56
75013;BME280;63567;49.956;20.130;2022-12-10T01:53:08;95716.28;;;0.54;83.78
75013;BME280;63567;49.956;20.130;2022-12-10T01:55:38;95728.78;;;0.50;84.48
75013;BME280;63567;49.956;20.130;2022-12-10T01:58:04;95717.59;;;0.42;84.59
75013;BME280;63567;49.956;20.130;2022-12-10T02:00:32;95722.25;;;0.38;85.11
75013;BME280;63567;49.956;20.130;2022-12-10T02:03:09;95727.09;;;0.33;84.45
75013;BME280;63567;49.956;20.130;2022-12-10T02:05:42;95727.06;;;0.25;85.65
75013;BME280;63567;49.956;20.130;2022-12-10T02:08:21;95727.41;;;0.30;85.86
75013;BME280;63567;49.956;20.130;2022-12-10T02:13:39;95723.69;;;0.32;85.22
75013;BME280;63567;49.956;20.130;2022-12-10T02:16:18;95725.94;;;0.27;85.45
75013;BME280;63567;49.956;20.130;2022-12-10T02:19:19;95723.53;;;0.34;85.73
75013;BME280;63567;49.956;20.130;2022-12-10T02:21:49;95723.81;;;0.23;85.78
75013;BME280;63567;49.956;20.130;2022-12-10T02:24:20;95731.91;;;0.28;85.62
75013;BME280;63567;49.956;20.130;2022-12-10T02:26:58;95725.28;;;0.25;85.88
75013;BME280;63567;49.956;20.130;2022-12-10T02:29:27;95735.31;;;0.28;85.77
75013;BME280;63567;49.956;20.130;2022-12-10T02:32:03;95733.06;;;0.25;85.73
75013;BME280;63567;49.956;20.130;2022-12-10T02:34:33;95727.56;;;0.28;85.72
75013;BME280;63567;49.956;20.130;2022-12-10T02:37:04;95725.63;;;0.30;85.82
75013;BME280;63567;49.956;20.130;2022-12-10T02:39:36;95721.91;;;0.25;85.70
75013;BME280;63567;49.956;20.130;2022-12-10T02:42:04;95729.34;;;0.28;85.86
75013;BME280;63567;49.956;20.130;2022-12-10T02:44:33;95735.13;;;0.22;85.34
75013;BME280;63567;49.956;20.130;2022-12-10T02:47:00;95746.81;;;0.26;86.04
75013;BME280;63567;49.956;20.130;2022-12-10T02:49:27;95740.97;;;0.24;85.89
75013;BME280;63567;49.956;20.130;2022-12-10T02:51:53;95748.91;;;0.22;86.18
75013;BME280;63567;49.956;20.130;2022-12-10T02:54:40;95760.25;;;0.29;85.96
75013;BME280;63567;49.956;20.130;2022-12-10T03:00:04;95759.13;;;0.32;86.30
75013;BME280;63567;49.956;20.130;2022-12-10T03:02:47;95764.69;;;0.37;85.54
75013;BME280;63567;49.956;20.130;2022-12-10T03:05:35;95762.38;;;0.34;86.34
75013;BME280;63567;49.956;20.130;2022-12-10T03:08:22;95756.72;;;0.38;86.08
75013;BME280;63567;49.956;20.130;2022-12-10T03:10:55;95756.06;;;0.36;86.00
75013;BME280;63567;49.956;20.130;2022-12-10T03:13:31;95753.44;;;0.28;86.39
75013;BME280;63567;49.956;20.130;2022-12-10T03:15:58;95756.22;;;0.27;86.04
75013;BME280;63567;49.956;20.130;2022-12-10T03:18:25;95755.59;;;0.33;86.08
75013;BME280;63567;49.956;20.130;2022-12-10T03:20:53;95744.44;;;0.40;86.28
75013;BME280;63567;49.956;20.130;2022-12-10T03:23:22;95742.34;;;0.44;86.48
75013;BME280;63567;49.956;20.130;2022-12-10T03:25:49;95749.75;;;0.31;86.26
75013;BME280;63567;49.956;20.130;2022-12-10T03:28:18;95761.56;;;0.33;86.32
75013;BME280;63567;49.956;20.130;2022-12-10T03:30:45;95762.88;;;0.37;86.41
75013;BME280;63567;49.956;20.130;2022-12-10T03:33:12;95775.47;;;0.32;86.34
75013;BME280;63567;49.956;20.130;2022-12-10T03:35:38;95774.38;;;0.35;86.44
75013;BME280;63567;49.956;20.130;2022-12-10T03:38:04;95771.13;;;0.41;86.34
75013;BME280;63567;49.956;20.130;2022-12-10T03:40:29;95766.97;;;0.48;86.54
75013;BME280;63567;49.956;20.130;2022-12-10T03:42:55;95776.69;;;0.46;85.33
75013;BME280;63567;49.956;20.130;2022-12-10T03:45:20;95771.50;;;0.46;85.99
75013;BME280;63567;49.956;20.130;2022-12-10T03:47:45;95771.84;;;0.51;85.62
75013;BME280;63567;49.956;20.130;2022-12-10T03:50:11;95778.19;;;0.57;85.79
75013;BME280;63567;49.956;20.130;2022-12-10T03:52:36;95787.09;;;0.54;85.81
75013;BME280;63567;49.956;20.130;2022-12-10T03:55:02;95787.09;;;0.63;85.70
75013;BME280;63567;49.956;20.130;2022-12-10T03:57:28;95784.50;;;0.63;85.22
75013;BME280;63567;49.956;20.130;2022-12-10T03:59:53;95789.66;;;0.63;85.32
75013;BME280;63567;49.956;20.130;2022-12-10T04:02:18;95791.47;;;0.62;85.73
75013;BME280;63567;49.956;20.130;2022-12-10T04:04:44;95791.47;;;0.62;85.59
75013;BME280;63567;49.956;20.130;2022-12-10T04:07:09;95788.72;;;0.64;85.44
75013;BME280;63567;49.956;20.130;2022-12-10T04:09:35;95789.66;;;0.63;85.63
75013;BME280;63567;49.956;20.130;2022-12-10T04:12:00;95791.63;;;0.69;85.97
75013;BME280;63567;49.956;20.130;2022-12-10T04:14:26;95797.16;;;0.66;85.30
75013;BME280;63567;49.956;20.130;2022-12-10T04:17:33;95818.34;;;0.61;85.29
75013;BME280;63567;49.956;20.130;2022-12-10T04:19:59;95810.09;;;0.66;85.61
75013;BME280;63567;49.956;20.130;2022-12-10T04:22:24;95823.53;;;0.69;85.10
75013;BME280;63567;49.956;20.130;2022-12-10T04:25:28;95828.28;;;0.74;85.46
75013;BME280;63567;49.956;20.130;2022-12-10T04:28:12;95822.59;;;0.70;85.86
75013;BME280;63567;49.956;20.130;2022-12-10T04:30:37;95826.31;;;0.68;85.42
75013;BME280;63567;49.956;20.130;2022-12-10T04:33:02;95825.03;;;0.72;85.87
75013;BME280;63567;49.956;20.130;2022-12-10T04:35:28;95816.28;;;0.73;85.46
75013;BME280;63567;49.956;20.130;2022-12-10T04:37:53;95814.66;;;0.80;85.82
75013;BME280;63567;49.956;20.130;2022-12-10T04:40:18;95823.56;;;0.77;84.95
75013;BME280;63567;49.956;20.130;2022-12-10T04:42:43;95815.81;;;0.77;85.53
75013;BME280;63567;49.956;20.130;2022-12-10T04:45:09;95821.31;;;0.74;85.53
75013;BME280;63567;49.956;20.130;2022-12-10T04:47:34;95820.69;;;0.80;85.39
75013;BME280;63567;49.956;20.130;2022-12-10T04:50:00;95812.25;;;0.78;85.08
75013;BME280;63567;49.956;20.130;2022-12-10T04:52:25;95811.41;;;0.78;85.42
75013;BME280;63567;49.956;20.130;2022-12-10T04:54:50;95822.25;;;0.73;85.35
75013;BME280;63567;49.956;20.130;2022-12-10T04:57:15;95828.72;;;0.69;85.44
75013;BME280;63567;49.956;20.130;2022-12-10T04:59:41;95843.78;;;0.66;85.44
75013;BME280;63567;49.956;20.130;2022-12-10T05:02:06;95840.53;;;0.64;86.28
75013;BME280;63567;49.956;20.130;2022-12-10T05:04:32;95844.09;;;0.63;85.85
75013;BME280;63567;49.956;20.130;2022-12-10T05:06:58;95843.00;;;0.65;86.02
75013;BME280;63567;49.956;20.130;2022-12-10T05:09:23;95855.91;;;0.57;86.07
75013;BME280;63567;49.956;20.130;2022-12-10T05:11:48;95843.75;;;0.57;86.10
75013;BME280;63567;49.956;20.130;2022-12-10T05:14:14;95834.22;;;0.66;86.57
75013;BME280;63567;49.956;20.130;2022-12-10T05:16:41;95849.63;;;0.68;85.99
75013;BME280;63567;49.956;20.130;2022-12-10T05:19:08;95853.50;;;0.64;86.39
75013;BME280;63567;49.956;20.130;2022-12-10T05:21:34;95851.09;;;0.70;86.18
75013;BME280;63567;49.956;20.130;2022-12-10T05:24:18;95854.81;;;0.68;85.80
75013;BME280;63567;49.956;20.130;2022-12-10T05:26:44;95872.97;;;0.68;86.32
75013;BME280;63567;49.956;20.130;2022-12-10T05:29:12;95885.94;;;0.76;85.74
75013;BME280;63567;49.956;20.130;2022-12-10T05:31:37;95895.69;;;0.82;86.20
75013;BME280;63567;49.956;20.130;2022-12-10T05:34:02;95902.31;;;0.76;85.54
75013;BME280;63567;49.956;20.130;2022-12-10T05:36:30;95904.28;;;0.82;85.62
75013;BME280;63567;49.956;20.130;2022-12-10T05:38:56;95916.41;;;0.82;85.05
75013;BME280;63567;49.956;20.130;2022-12-10T05:41:30;95910.63;;;0.88;84.72
75013;BME280;63567;49.956;20.130;2022-12-10T05:43:57;95897.78;;;0.87;84.77
75013;BME280;63567;49.956;20.130;2022-12-10T05:46:25;95901.22;;;0.87;85.13
75013;BME280;63567;49.956;20.130;2022-12-10T05:48:52;95915.78;;;0.88;85.00
75013;BME280;63567;49.956;20.130;2022-12-10T05:51:20;95911.78;;;0.94;85.21
75013;BME280;63567;49.956;20.130;2022-12-10T05:53:46;95904.81;;;0.94;85.13
75013;BME280;63567;49.956;20.130;2022-12-10T05:56:17;95893.28;;;0.89;84.77
75013;BME280;63567;49.956;20.130;2022-12-10T05:58:45;95882.91;;;0.89;85.15
75013;BME280;63567;49.956;20.130;2022-12-10T06:01:14;95877.91;;;0.87;85.52
75013;BME280;63567;49.956;20.130;2022-12-10T06:03:40;95872.19;;;0.84;85.43
75013;BME280;63567;49.956;20.130;2022-12-10T06:06:05;95863.25;;;0.78;85.96
75013;BME280;63567;49.956;20.130;2022-12-10T06:08:32;95868.94;;;0.81;85.19
75013;BME280;63567;49.956;20.130;2022-12-10T06:11:06;95867.81;;;0.84;85.77
75013;BME280;63567;49.956;20.130;2022-12-10T06:13:32;95877.25;;;0.85;85.87
75013;BME280;63567;49.956;20.130;2022-12-10T06:15:57;95869.13;;;0.88;84.84
75013;BME280;63567;49.956;20.130;2022-12-10T06:18:23;95865.41;;;0.82;85.74
75013;BME280;63567;49.956;20.130;2022-12-10T06:20:49;95851.78;;;0.89;85.32
75013;BME280;63567;49.956;20.130;2022-12-10T06:23:14;95850.28;;;0.70;86.03
75013;BME280;63567;49.956;20.130;2022-12-10T06:25:40;95866.75;;;0.60;87.00
75013;BME280;63567;49.956;20.130;2022-12-10T06:28:06;95889.47;;;0.67;86.55
75013;BME280;63567;49.956;20.130;2022-12-10T06:30:32;95903.22;;;0.67;86.56
75013;BME280;63567;49.956;20.130;2022-12-10T06:32:57;95906.66;;;0.76;86.36
75013;BME280;63567;49.956;20.130;2022-12-10T06:35:22;95898.56;;;0.71;86.12
75013;BME280;63567;49.956;20.130;2022-12-10T06:37:48;95903.13;;;0.77;85.69
75013;BME280;63567;49.956;20.130;2022-12-10T06:40:14;95916.53;;;0.72;85.72
75013;BME280;63567;49.956;20.130;2022-12-10T06:42:39;95921.13;;;0.78;86.35
75013;BME280;63567;49.956;20.130;2022-12-10T06:45:05;95913.63;;;0.75;86.55
75013;BME280;63567;49.956;20.130;2022-12-10T06:47:30;95925.78;;;0.75;86.74
75013;BME280;63567;49.956;20.130;2022-12-10T06:49:56;95925.28;;;0.71;86.81
75013;BME280;63567;49.956;20.130;2022-12-10T06:52:21;95930.16;;;0.74;86.27
75013;BME280;63567;49.956;20.130;2022-12-10T06:54:46;95931.94;;;0.74;86.88
75013;BME280;63567;49.956;20.130;2022-12-10T06:57:11;95950.44;;;0.79;86.34
75013;BME280;63567;49.956;20.130;2022-12-10T06:59:37;95956.63;;;0.86;86.07
75013;BME280;63567;49.956;20.130;2022-12-10T07:02:02;95967.13;;;0.85;85.96
75013;BME280;63567;49.956;20.130;2022-12-10T07:04:27;95972.06;;;0.96;86.01
75013;BME280;63567;49.956;20.130;2022-12-10T07:06:53;95983.09;;;0.98;85.44
75013;BME280;63567;49.956;20.130;2022-12-10T07:09:19;95973.06;;;1.03;85.17
75013;BME280;63567;49.956;20.130;2022-12-10T07:11:44;95974.53;;;1.06;85.31
75013;BME280;63567;49.956;20.130;2022-12-10T07:14:13;95966.59;;;1.07;85.49
75013;BME280;63567;49.956;20.130;2022-12-10T07:16:39;95959.97;;;1.13;84.90
75013;BME280;63567;49.956;20.130;2022-12-10T07:19:04;95963.22;;;1.15;85.15
75013;BME280;63567;49.956;20.130;2022-12-10T07:21:32;95973.78;;;1.13;86.00
75013;BME280;63567;49.956;20.130;2022-12-10T07:24:01;95958.03;;;1.15;85.55
75013;BME280;63567;49.956;20.130;2022-12-10T07:26:31;95951.22;;;1.14;85.08
75013;BME280;63567;49.956;20.130;2022-12-10T07:29:02;95961.13;;;1.18;85.31
75013;BME280;63567;49.956;20.130;2022-12-10T07:31:28;95959.03;;;1.22;85.09
75013;BME280;63567;49.956;20.130;2022-12-10T07:33:54;95968.94;;;1.27;84.39
75013;BME280;63567;49.956;20.130;2022-12-10T07:36:21;95974.66;;;1.30;85.27
75013;BME280;63567;49.956;20.130;2022-12-10T07:38:53;95979.31;;;1.27;85.01
75013;BME280;63567;49.956;20.130;2022-12-10T07:41:20;95980.47;;;1.24;84.85
75013;BME280;63567;49.956;20.130;2022-12-10T07:43:45;95983.72;;;1.34;85.16
75013;BME280;63567;49.956;20.130;2022-12-10T07:46:13;95986.16;;;1.36;84.67
75013;BME280;63567;49.956;20.130;2022-12-10T07:48:41;95982.75;;;1.35;84.40
75013;BME280;63567;49.956;20.130;2022-12-10T07:51:07;95973.66;;;1.31;84.91
75013;BME280;63567;49.956;20.130;2022-12-10T07:53:33;95961.03;;;1.28;83.94
75013;BME280;63567;49.956;20.130;2022-12-10T07:55:59;95957.78;;;1.26;84.71
75013;BME280;63567;49.956;20.130;2022-12-10T07:58:24;95955.47;;;1.23;84.99
75013;BME280;63567;49.956;20.130;2022-12-10T08:00:49;95950.28;;;1.23;85.07
75013;BME280;63567;49.956;20.130;2022-12-10T08:03:15;95949.00;;;1.27;84.43
75013;BME280;63567;49.956;20.130;2022-12-10T08:05:40;95959.09;;;1.30;85.18
75013;BME280;63567;49.956;20.130;2022-12-10T08:08:05;95954.19;;;1.27;84.69
75013;BME280;63567;49.956;20.130;2022-12-10T08:10:35;95956.94;;;1.26;84.81
75013;BME280;63567;49.956;20.130;2022-12-10T08:13:00;95964.53;;;1.19;85.04
75013;BME280;63567;49.956;20.130;2022-12-10T08:15:25;95962.13;;;1.17;84.54
75013;BME280;63567;49.956;20.130;2022-12-10T08:17:53;95966.00;;;1.13;85.05
75013;BME280;63567;49.956;20.130;2022-12-10T08:20:18;95967.59;;;1.14;85.35
75013;BME280;63567;49.956;20.130;2022-12-10T08:22:43;95980.84;;;1.03;85.48
75013;BME280;63567;49.956;20.130;2022-12-10T08:25:09;95979.75;;;1.14;85.12
75013;BME280;63567;49.956;20.130;2022-12-10T08:27:34;95989.66;;;1.18;84.37
75013;BME280;63567;49.956;20.130;2022-12-10T08:29:59;95997.44;;;1.18;85.18
75013;BME280;63567;49.956;20.130;2022-12-10T08:32:24;95997.78;;;1.23;84.20
75013;BME280;63567;49.956;20.130;2022-12-10T08:34:50;95999.28;;;1.26;84.69
75013;BME280;63567;49.956;20.130;2022-12-10T08:37:15;96006.25;;;1.34;84.62
75013;BME280;63567;49.956;20.130;2022-12-10T08:39:40;96014.38;;;1.31;83.83
75013;BME280;63567;49.956;20.130;2022-12-10T08:42:06;96020.53;;;1.38;84.28
75013;BME280;63567;49.956;20.130;2022-12-10T08:44:31;96015.97;;;1.32;84.15
75013;BME280;63567;49.956;20.130;2022-12-10T08:46:56;96006.69;;;1.21;84.05
75013;BME280;63567;49.956;20.130;2022-12-10T08:49:22;96002.19;;;1.31;84.64
75013;BME280;63567;49.956;20.130;2022-12-10T08:51:47;96000.13;;;1.35;83.64
75013;BME280;63567;49.956;20.130;2022-12-10T08:54:12;96000.88;;;1.27;83.99
75013;BME280;63567;49.956;20.130;2022-12-10T08:56:37;96000.59;;;1.30;83.91
75013;BME280;63567;49.956;20.130;2022-12-10T08:59:05;95996.34;;;1.29;83.88
75013;BME280;63567;49.956;20.130;2022-12-10T09:01:30;95987.63;;;1.38;83.65
75013;BME280;63567;49.956;20.130;2022-12-10T09:03:55;95990.88;;;1.40;83.55
75013;BME280;63567;49.956;20.130;2022-12-10T09:06:22;95992.84;;;1.47;84.52
75013;BME280;63567;49.956;20.130;2022-12-10T09:08:49;95999.03;;;1.54;83.68
75013;BME280;63567;49.956;20.130;2022-12-10T09:11:21;95999.38;;;1.59;82.82
75013;BME280;63567;49.956;20.130;2022-12-10T09:13:47;96004.56;;;1.59;83.96
75013;BME280;63567;49.956;20.130;2022-12-10T09:16:13;95999.88;;;1.62;83.35
75013;BME280;63567;49.956;20.130;2022-12-10T09:18:39;95995.16;;;1.58;83.11
75013;BME280;63567;49.956;20.130;2022-12-10T09:21:09;95988.50;;;1.55;83.04
75013;BME280;63567;49.956;20.130;2022-12-10T09:23:35;95982.81;;;1.60;83.27
75013;BME280;63567;49.956;20.130;2022-12-10T09:26:01;95979.09;;;1.62;83.26
75013;BME280;63567;49.956;20.130;2022-12-10T09:28:29;95982.19;;;1.66;82.89
75013;BME280;63567;49.956;20.130;2022-12-10T09:30:59;95979.13;;;1.71;83.03
75013;BME280;63567;49.956;20.130;2022-12-10T09:33:26;95973.13;;;1.70;82.90
75013;BME280;63567;49.956;20.130;2022-12-10T09:35:52;95972.28;;;1.61;82.99
75013;BME280;63567;49.956;20.130;2022-12-10T09:38:18;95980.75;;;1.63;82.56
75013;BME280;63567;49.956;20.130;2022-12-10T09:40:49;95978.31;;;1.70;82.75
75013;BME280;63567;49.956;20.130;2022-12-10T09:46:23;95978.00;;;1.65;83.08
75013;BME280;63567;49.956;20.130;2022-12-10T09:49:13;95973.94;;;1.71;82.67
75013;BME280;63567;49.956;20.130;2022-12-10T09:51:40;95971.97;;;1.64;82.47
75013;BME280;63567;49.956;20.130;2022-12-10T09:54:21;95981.41;;;1.74;83.25
75013;BME280;63567;49.956;20.130;2022-12-10T09:56:48;95981.09;;;1.77;82.08
75013;BME280;63567;49.956;20.130;2022-12-10T09:59:30;95969.75;;;1.78;82.21
75013;BME280;63567;49.956;20.130;2022-12-10T10:02:23;95974.59;;;1.73;82.36
75013;BME280;63567;49.956;20.130;2022-12-10T10:04:53;95973.28;;;1.69;82.33
75013;BME280;63567;49.956;20.130;2022-12-10T10:07:22;95977.34;;;1.71;82.70
75013;BME280;63567;49.956;20.130;2022-12-10T10:09:48;95966.47;;;1.68;81.83
75013;BME280;63567;49.956;20.130;2022-12-10T10:12:15;95967.31;;;1.76;82.25
75013;BME280;63567;49.956;20.130;2022-12-10T10:14:42;95973.63;;;1.82;82.07
75013;BME280;63567;49.956;20.130;2022-12-10T10:17:21;95972.19;;;1.88;82.79
75013;BME280;63567;49.956;20.130;2022-12-10T10:19:48;95965.38;;;1.87;81.98
75013;BME280;63567;49.956;20.130;2022-12-10T10:22:14;95965.19;;;1.88;81.50
75013;BME280;63567;49.956;20.130;2022-12-10T10:24:43;95969.59;;;1.96;81.48
75013;BME280;63567;49.956;20.130;2022-12-10T10:27:22;95955.94;;;1.85;82.48
75013;BME280;63567;49.956;20.130;2022-12-10T10:29:50;95961.66;;;1.89;81.54
75013;BME280;63567;49.956;20.130;2022-12-10T10:32:19;95961.81;;;1.96;81.79
75013;BME280;63567;49.956;20.130;2022-12-10T10:34:46;95964.72;;;1.84;81.10
75013;BME280;63567;49.956;20.130;2022-12-10T10:37:20;95970.72;;;2.01;81.42
75013;BME280;63567;49.956;20.130;2022-12-10T10:39:48;95967.66;;;1.98;81.24
75013;BME280;63567;49.956;20.130;2022-12-10T10:42:23;95969.91;;;2.01;81.29
75013;BME280;63567;49.956;20.130;2022-12-10T10:44:50;95963.44;;;2.05;80.84
75013;BME280;63567;49.956;20.130;2022-12-10T10:47:28;95969.78;;;2.02;81.62
75013;BME280;63567;49.956;20.130;2022-12-10T10:49:54;95968.78;;;1.95;80.96
75013;BME280;63567;49.956;20.130;2022-12-10T10:52:20;95962.59;;;1.88;81.41
75013;BME280;63567;49.956;20.130;2022-12-10T10:54:46;95961.09;;;1.61;80.68
75013;BME280;63567;49.956;20.130;2022-12-10T10:57:45;95961.88;;;1.45;81.96
75013;BME280;63567;49.956;20.130;2022-12-10T11:00:19;95961.22;;;1.51;82.17
75013;BME280;63567;49.956;20.130;2022-12-10T11:02:45;95966.13;;;1.54;82.10
75013;BME280;63567;49.956;20.130;2022-12-10T11:07:47;95968.88;;;1.69;81.43
75013;BME280;63567;49.956;20.130;2022-12-10T11:10:18;95969.91;;;1.76;81.43
75013;BME280;63567;49.956;20.130;2022-12-10T11:12:53;95974.59;;;1.81;80.83
75013;BME280;63567;49.956;20.130;2022-12-10T11:17:49;95974.28;;;1.84;81.01
75013;BME280;63567;49.956;20.130;2022-12-10T11:20:19;95979.63;;;1.91;81.22
75013;BME280;63567;49.956;20.130;2022-12-10T11:23:08;95983.22;;;1.90;80.42
75013;BME280;63567;49.956;20.130;2022-12-10T11:25:57;95980.63;;;1.90;80.26
75013;BME280;63567;49.956;20.130;2022-12-10T11:28:43;95985.31;;;1.78;80.92
75013;BME280;63567;49.956;20.130;2022-12-10T11:31:22;95981.06;;;1.69;81.20
75013;BME280;63567;49.956;20.130;2022-12-10T11:37:17;95967.44;;;1.75;81.03
75013;BME280;63567;49.956;20.130;2022-12-10T11:49:06;95963.06;;;1.59;81.52
75013;BME280;63567;49.956;20.130;2022-12-10T11:51:46;95971.78;;;1.58;81.70
75013;BME280;63567;49.956;20.130;2022-12-10T11:59:55;95970.50;;;1.62;81.69
75013;BME280;63567;49.956;20.130;2022-12-10T12:13:15;95967.09;;;1.61;81.08
75013;BME280;63567;49.956;20.130;2022-12-10T12:15:51;95968.56;;;1.64;81.20
75013;BME280;63567;49.956;20.130;2022-12-10T12:18:20;95958.19;;;1.64;81.55
75013;BME280;63567;49.956;20.130;2022-12-10T12:20:51;95954.28;;;1.60;81.15
75013;BME280;63567;49.956;20.130;2022-12-10T12:23:23;95951.88;;;1.58;80.63
75013;BME280;63567;49.956;20.130;2022-12-10T12:25:54;95949.06;;;1.52;81.66
75013;BME280;63567;49.956;20.130;2022-12-10T12:28:28;95952.31;;;1.54;81.51
75013;BME280;63567;49.956;20.130;2022-12-10T12:31:05;95937.41;;;1.48;81.44
75013;BME280;63567;49.956;20.130;2022-12-10T12:33:50;95943.41;;;1.48;81.17
75013;BME280;63567;49.956;20.130;2022-12-10T12:36:25;95950.53;;;1.46;81.56
75013;BME280;63567;49.956;20.130;2022-12-10T12:39:00;95947.78;;;1.48;81.00
75013;BME280;63567;49.956;20.130;2022-12-10T12:44:19;95940.63;;;1.41;81.41
75013;BME280;63567;49.956;20.130;2022-12-10T12:46:48;95942.56;;;1.39;81.52
75013;BME280;63567;49.956;20.130;2022-12-10T12:49:21;95950.34;;;1.39;82.03
75013;BME280;63567;49.956;20.130;2022-12-10T12:52:05;95960.22;;;1.36;81.50
75013;BME280;63567;49.956;20.130;2022-12-10T12:54:36;95948.06;;;1.28;82.00
75013;BME280;63567;49.956;20.130;2022-12-10T12:59:58;95946.44;;;1.35;82.02
75013;BME280;63567;49.956;20.130;2022-12-10T13:05:18;95957.13;;;1.32;82.04
75013;BME280;63567;49.956;20.130;2022-12-10T13:10:57;95962.16;;;1.34;81.55
75013;BME280;63567;49.956;20.130;2022-12-10T13:13:34;95975.59;;;1.29;82.09
75013;BME280;63567;49.956;20.130;2022-12-10T13:22:03;95981.88;;;1.18;82.01
75013;BME280;63567;49.956;20.130;2022-12-10T13:29:28;95989.47;;;1.12;81.92
75013;BME280;63567;49.956;20.130;2022-12-10T13:32:04;95994.31;;;1.07;82.38
75013;BME280;63567;49.956;20.130;2022-12-10T13:34:38;95985.56;;;1.08;82.49
75013;BME280;63567;49.956;20.130;2022-12-10T13:40:02;95984.28;;;1.12;82.46
75013;BME280;63567;49.956;20.130;2022-12-10T13:42:31;95994.31;;;1.07;81.81
75013;BME280;63567;49.956;20.130;2022-12-10T13:47:49;95987.81;;;1.02;82.54
75013;BME280;63567;49.956;20.130;2022-12-10T14:06:38;95996.88;;;0.98;83.33
75013;BME280;63567;49.956;20.130;2022-12-10T14:11:38;96001.41;;;0.96;82.48
75013;BME280;63567;49.956;20.130;2022-12-10T14:14:09;96007.09;;;1.00;82.55
75013;BME280;63567;49.956;20.130;2022-12-10T14:16:37;96006.25;;;0.99;82.54
75013;BME280;63567;49.956;20.130;2022-12-10T14:19:06;96004.03;;;1.05;82.99
75013;BME280;63567;49.956;20.130;2022-12-10T14:21:35;96004.31;;;1.01;82.30
75013;BME280;63567;49.956;20.130;2022-12-10T14:24:02;96005.59;;;0.97;82.40
75013;BME280;63567;49.956;20.130;2022-12-10T14:26:30;96001.91;;;1.00;82.45
75013;BME280;63567;49.956;20.130;2022-12-10T14:29:01;95995.75;;;1.01;82.18
75013;BME280;63567;49.956;20.130;2022-12-10T14:31:35;96002.41;;;1.03;82.86
75013;BME280;63567;49.956;20.130;2022-12-10T14:34:06;96008.84;;;0.99;82.25
75013;BME280;63567;49.956;20.130;2022-12-10T14:36:34;96010.09;;;0.87;83.11
75013;BME280;63567;49.956;20.130;2022-12-10T14:39:02;96014.22;;;0.98;82.59